Time;durP1;ratioP1;P1;durP2;ratioP2;P2;SDS_P1;SDS_P2;PMS_P1;PMS_P2;Temp;Humidity;BMP_temperature;BMP_pressure;BME280_temperature;BME280_humidity;BME280_pressure;Samples;Min_cycle;Max_cycle;Signal;HPM_P1;HPM_P2
2022/03/03 00:01:35;;;;;;;21.27;11.60;;;1.70;99.90;;;;;;4980841;28;20431;-58
2022/03/03 00:04:01;;;;;;;22.30;12.87;;;1.70;99.90;;;;;;4983341;28;20534;-57
2022/03/03 00:06:27;;;;;;;17.47;11.20;;;1.70;99.90;;;;;;4982830;28;20649;-57
2022/03/03 00:08:52;;;;;;;22.10;11.37;;;1.70;99.90;;;;;;4980163;28;20540;-58
2022/03/03 00:11:18;;;;;;;21.47;12.03;;;1.70;99.90;;;;;;4978923;28;20203;-57
2022/03/03 00:13:44;;;;;;;19.80;12.10;;;1.70;99.90;;;;;;4981356;28;20215;-57
2022/03/03 00:16:09;;;;;;;17.10;10.97;;;1.60;99.90;;;;;;4978655;28;20258;-57
2022/03/03 00:18:35;;;;;;;16.50;10.93;;;1.70;99.90;;;;;;4981629;28;20404;-57
2022/03/03 00:21:00;;;;;;;18.10;10.77;;;1.70;99.90;;;;;;4979860;28;20642;-57
2022/03/03 00:23:26;;;;;;;15.13;9.87;;;1.70;99.90;;;;;;4980301;28;20657;-57
2022/03/03 00:25:51;;;;;;;20.67;12.00;;;1.80;99.90;;;;;;4966059;28;20539;-58
2022/03/03 00:28:17;;;;;;;24.27;10.80;;;1.70;99.90;;;;;;4983215;28;20242;-57
2022/03/03 00:30:45;;;;;;;18.53;11.43;;;1.80;99.90;;;;;;4979149;28;20191;-57
2022/03/03 00:33:10;;;;;;;19.57;11.03;;;1.80;99.90;;;;;;4979964;28;20594;-57
2022/03/03 00:35:36;;;;;;;14.10;9.87;;;1.90;99.90;;;;;;4981515;28;20450;-57
2022/03/03 00:38:02;;;;;;;16.23;10.17;;;2.10;99.90;;;;;;4983364;28;20213;-58
2022/03/03 00:40:27;;;;;;;16.37;10.30;;;2.20;99.90;;;;;;4982541;28;20637;-57
2022/03/03 00:42:53;;;;;;;15.50;10.60;;;2.20;99.90;;;;;;4979920;28;20701;-56
2022/03/03 00:45:18;;;;;;;16.10;9.80;;;2.30;99.90;;;;;;4986729;28;20181;-57
2022/03/03 00:47:44;;;;;;;16.80;10.77;;;2.20;99.90;;;;;;4980217;28;20662;-57
2022/03/03 00:50:09;;;;;;;14.23;10.60;;;2.20;99.90;;;;;;4979383;28;20223;-56
2022/03/03 00:52:35;;;;;;;15.10;9.67;;;2.20;99.90;;;;;;4981538;28;20588;-57
2022/03/03 00:55:02;;;;;;;15.20;9.90;;;2.10;99.90;;;;;;4983038;28;20183;-56
2022/03/03 00:57:28;;;;;;;12.17;9.50;;;2.10;99.90;;;;;;4987829;28;20465;-56
2022/03/03 00:59:53;;;;;;;17.33;10.40;;;2.00;99.90;;;;;;4982899;28;20508;-56
2022/03/03 01:02:19;;;;;;;16.77;11.40;;;2.00;99.90;;;;;;4975494;28;20215;-56
2022/03/03 01:04:44;;;;;;;13.80;10.40;;;2.00;99.90;;;;;;4982185;28;20182;-58
2022/03/03 01:07:10;;;;;;;16.57;10.47;;;1.90;99.90;;;;;;4981832;28;20635;-58
2022/03/03 01:09:36;;;;;;;18.90;12.30;;;1.90;99.90;;;;;;4981176;28;20275;-57
2022/03/03 01:12:02;;;;;;;15.23;11.10;;;1.90;99.90;;;;;;4981652;28;20193;-58
2022/03/03 01:14:28;;;;;;;14.77;9.40;;;1.90;99.90;;;;;;4982263;28;20788;-56
2022/03/03 01:16:54;;;;;;;14.83;10.17;;;1.90;99.90;;;;;;4977096;28;20221;-57
2022/03/03 01:19:20;;;;;;;15.70;11.60;;;2.00;99.90;;;;;;4979259;28;20276;-56
2022/03/03 01:21:46;;;;;;;16.80;10.70;;;2.00;99.90;;;;;;4982351;28;20179;-57
2022/03/03 01:24:11;;;;;;;15.27;9.63;;;2.00;99.90;;;;;;4982889;28;20262;-57
2022/03/03 01:26:37;;;;;;;20.13;10.63;;;2.10;99.90;;;;;;4981054;28;20971;-56
2022/03/03 01:29:03;;;;;;;14.23;9.87;;;2.00;99.90;;;;;;4978234;28;20184;-57
2022/03/03 01:31:28;;;;;;;18.70;10.67;;;1.90;99.90;;;;;;4987805;28;20241;-57
2022/03/03 01:33:54;;;;;;;18.13;10.13;;;1.90;99.90;;;;;;4982549;28;20242;-56
2022/03/03 01:36:20;;;;;;;21.50;10.63;;;1.90;99.90;;;;;;4982543;28;20197;-57
2022/03/03 01:38:45;;;;;;;18.83;9.83;;;1.90;99.90;;;;;;4978198;28;20208;-57
2022/03/03 01:41:11;;;;;;;17.10;10.83;;;1.90;99.90;;;;;;4979187;28;20720;-57
2022/03/03 01:43:37;;;;;;;17.40;11.40;;;1.90;99.90;;;;;;4982746;28;20187;-57
2022/03/03 01:46:04;;;;;;;16.13;11.07;;;1.80;99.90;;;;;;4986065;28;20191;-56
2022/03/03 01:48:30;;;;;;;16.10;9.73;;;1.80;99.90;;;;;;4982107;28;20785;-57
2022/03/03 01:50:56;;;;;;;21.03;12.20;;;1.80;99.90;;;;;;4982335;28;21037;-57
2022/03/03 01:53:21;;;;;;;15.87;10.30;;;1.80;99.90;;;;;;4990557;28;20278;-57
2022/03/03 01:55:52;;;;;;;15.53;10.67;;;1.70;99.90;;;;;;4983427;28;20575;-57
2022/03/03 01:58:18;;;;;;;15.67;10.30;;;1.70;99.90;;;;;;4986491;28;20669;-56
2022/03/03 02:00:45;;;;;;;15.00;10.13;;;1.70;99.90;;;;;;4985203;28;20433;-57
2022/03/03 02:03:11;;;;;;;16.20;10.17;;;1.70;99.90;;;;;;4985577;28;20202;-58
2022/03/03 02:05:37;;;;;;;12.00;9.20;;;1.70;99.90;;;;;;4985645;28;20437;-57
2022/03/03 02:08:03;;;;;;;13.37;10.17;;;1.70;99.90;;;;;;4990793;28;20457;-57
2022/03/03 02:10:31;;;;;;;18.07;12.13;;;1.70;99.90;;;;;;4984841;28;20513;-57
2022/03/03 02:12:57;;;;;;;18.70;11.37;;;1.70;99.90;;;;;;4982409;28;20438;-57
2022/03/03 02:15:22;;;;;;;16.83;10.20;;;1.60;99.90;;;;;;4982272;28;20897;-57
2022/03/03 02:17:49;;;;;;;12.70;9.87;;;1.60;99.90;;;;;;4985277;28;20203;-57
2022/03/03 02:20:27;;;;;;;13.10;10.17;;;1.60;99.90;;;;;;4985495;28;20179;-57
2022/03/03 02:22:55;;;;;;;16.53;10.60;;;1.60;99.90;;;;;;4982246;28;20518;-57
2022/03/03 02:25:21;;;;;;;15.97;10.73;;;1.60;99.90;;;;;;4981856;28;20418;-57
2022/03/03 02:27:47;;;;;;;13.20;10.93;;;1.60;99.90;;;;;;4982250;28;20415;-57
2022/03/03 02:30:14;;;;;;;18.13;11.37;;;1.50;99.90;;;;;;4981940;28;20824;-57
2022/03/03 02:32:40;;;;;;;16.33;10.63;;;1.50;99.90;;;;;;4984347;28;20192;-57
2022/03/03 02:35:07;;;;;;;18.97;9.77;;;1.40;99.90;;;;;;4985439;28;20458;-56
2022/03/03 02:37:38;;;;;;;14.03;9.83;;;1.40;99.90;;;;;;4979699;28;20554;-57
2022/03/03 02:40:08;;;;;;;11.50;9.77;;;1.40;99.90;;;;;;4985148;28;20916;-57
2022/03/03 02:42:34;;;;;;;13.93;9.43;;;1.40;99.90;;;;;;4977114;28;20917;-57
2022/03/03 02:45:01;;;;;;;14.07;8.83;;;1.40;99.90;;;;;;4985038;28;20460;-56
2022/03/03 02:47:27;;;;;;;14.03;10.20;;;1.40;99.90;;;;;;4984502;28;20629;-58
2022/03/03 02:49:52;;;;;;;17.83;11.00;;;1.40;99.90;;;;;;4981679;28;20466;-58
2022/03/03 02:52:18;;;;;;;16.77;9.40;;;1.40;99.90;;;;;;4981602;28;20215;-57
2022/03/03 02:54:43;;;;;;;13.73;10.13;;;1.40;99.90;;;;;;4987114;28;20650;-58
2022/03/03 02:59:54;;;;;;;19.47;10.53;;;1.40;99.90;;;;;;4988931;28;20210;-56
2022/03/03 03:02:19;;;;;;;17.40;11.37;;;1.40;99.90;;;;;;4981395;28;20913;-56
2022/03/03 03:04:45;;;;;;;12.63;10.27;;;1.40;99.90;;;;;;4984253;28;20414;-56
2022/03/03 03:07:11;;;;;;;17.03;11.30;;;1.40;99.90;;;;;;4983651;28;20191;-57
2022/03/03 03:09:36;;;;;;;16.27;10.20;;;1.30;99.90;;;;;;4983219;28;20219;-56
2022/03/03 03:12:02;;;;;;;14.90;9.57;;;1.30;99.90;;;;;;4982682;28;20188;-56
2022/03/03 03:14:28;;;;;;;13.67;9.60;;;1.30;99.90;;;;;;4981201;28;20634;-56
2022/03/03 03:16:53;;;;;;;12.93;9.43;;;1.40;99.90;;;;;;4979777;28;20439;-57
2022/03/03 03:19:19;;;;;;;14.87;10.53;;;1.30;99.90;;;;;;4981054;28;20208;-56
2022/03/03 03:21:45;;;;;;;15.13;9.10;;;1.30;99.90;;;;;;4983896;28;20249;-56
2022/03/03 03:24:10;;;;;;;15.50;11.07;;;1.30;99.90;;;;;;4984568;28;20656;-57
2022/03/03 03:26:36;;;;;;;16.30;10.30;;;1.30;99.90;;;;;;4982431;28;20315;-57
2022/03/03 03:29:02;;;;;;;22.10;10.50;;;1.30;99.90;;;;;;4985638;28;20268;-56
2022/03/03 03:31:27;;;;;;;19.93;12.23;;;1.20;99.90;;;;;;4983615;28;20179;-57
2022/03/03 03:33:53;;;;;;;12.07;10.07;;;1.20;99.90;;;;;;4980829;28;20195;-56
2022/03/03 03:36:19;;;;;;;14.90;9.83;;;1.10;99.90;;;;;;4980720;28;20597;-56
2022/03/03 03:38:45;;;;;;;15.53;10.67;;;1.20;99.90;;;;;;4985571;28;20474;-56
2022/03/03 03:41:10;;;;;;;14.47;10.13;;;1.10;99.90;;;;;;4980578;28;20184;-56
2022/03/03 03:43:36;;;;;;;14.53;9.27;;;1.10;99.90;;;;;;4982244;28;20470;-56
2022/03/03 03:46:03;;;;;;;13.67;9.90;;;1.10;99.90;;;;;;4982787;28;20409;-56
2022/03/03 03:48:28;;;;;;;19.60;10.50;;;1.10;99.90;;;;;;4980160;28;20228;-57
2022/03/03 03:50:54;;;;;;;14.83;10.30;;;1.00;99.90;;;;;;4980295;28;20491;-56
2022/03/03 03:53:20;;;;;;;18.33;10.13;;;1.00;99.90;;;;;;4980455;28;20192;-56
2022/03/03 03:55:45;;;;;;;16.73;11.07;;;1.00;97.40;;;;;;4983116;28;20195;-56
2022/03/03 03:58:11;;;;;;;15.07;9.63;;;0.90;98.40;;;;;;4985053;28;20211;-56
2022/03/03 04:00:37;;;;;;;17.70;10.20;;;0.90;94.10;;;;;;4983418;28;20191;-56
2022/03/03 04:03:03;;;;;;;16.10;11.10;;;0.80;99.90;;;;;;4977350;28;20191;-57
2022/03/03 04:05:29;;;;;;;13.37;9.67;;;0.80;88.80;;;;;;4982261;28;20560;-56
2022/03/03 04:07:54;;;;;;;15.57;10.37;;;0.90;91.60;;;;;;4981329;28;20283;-57
2022/03/03 04:10:20;;;;;;;12.67;9.80;;;0.90;85.80;;;;;;4983250;28;20796;-57
2022/03/03 04:12:46;;;;;;;13.60;10.10;;;0.90;77.30;;;;;;4980509;28;20642;-56
2022/03/03 04:15:13;;;;;;;14.20;10.13;;;0.80;81.30;;;;;;4980150;28;20679;-57
2022/03/03 04:17:39;;;;;;;17.80;10.43;;;0.80;86.40;;;;;;4980069;28;20191;-56
2022/03/03 04:20:06;;;;;;;16.57;10.57;;;0.80;82.80;;;;;;4977487;28;20453;-56
2022/03/03 04:22:32;;;;;;;16.60;11.40;;;0.80;79.40;;;;;;4982131;28;20468;-56
2022/03/03 04:24:57;;;;;;;14.70;9.93;;;0.80;88.30;;;;;;4979743;28;20477;-57
2022/03/03 04:27:23;;;;;;;15.97;9.30;;;0.80;85.40;;;;;;4980024;28;20416;-57
2022/03/03 04:29:49;;;;;;;16.80;10.40;;;0.80;89.20;;;;;;4983490;28;20191;-57
2022/03/03 04:32:14;;;;;;;23.53;12.03;;;0.80;97.10;;;;;;4983104;28;20290;-58
2022/03/03 04:34:40;;;;;;;12.80;10.00;;;0.80;99.90;;;;;;4981442;28;20187;-57
2022/03/03 04:37:06;;;;;;;15.07;9.30;;;0.90;99.90;;;;;;4977233;28;20545;-57
2022/03/03 04:39:31;;;;;;;12.70;10.67;;;0.80;99.90;;;;;;4980858;28;20190;-57
2022/03/03 04:41:57;;;;;;;13.93;9.53;;;0.90;99.90;;;;;;4983184;28;20548;-57
2022/03/03 04:44:23;;;;;;;12.13;10.47;;;0.80;99.90;;;;;;4983282;28;20613;-57
2022/03/03 04:46:49;;;;;;;14.93;10.50;;;0.80;99.90;;;;;;4983070;28;20943;-57
2022/03/03 04:49:14;;;;;;;16.73;10.70;;;0.80;99.90;;;;;;4983141;28;20539;-57
2022/03/03 04:51:40;;;;;;;20.43;9.40;;;0.80;99.90;;;;;;4980604;28;20222;-57
2022/03/03 04:54:10;;;;;;;14.57;10.90;;;0.80;99.90;;;;;;4976221;28;20527;-58
2022/03/03 04:56:38;;;;;;;19.50;11.20;;;1.00;99.90;;;;;;4981944;28;20476;-58
2022/03/03 04:59:05;;;;;;;20.33;10.57;;;0.90;99.90;;;;;;4980347;28;20470;-58
2022/03/03 05:01:31;;;;;;;15.50;10.67;;;1.00;99.90;;;;;;4989294;28;20473;-58
2022/03/03 05:03:56;;;;;;;14.20;9.13;;;1.00;99.90;;;;;;4988811;28;20465;-58
2022/03/03 05:06:22;;;;;;;12.70;9.53;;;1.10;99.90;;;;;;4981319;28;20500;-58
2022/03/03 05:08:47;;;;;;;15.03;9.67;;;1.10;99.90;;;;;;4983155;28;20238;-57
2022/03/03 05:11:13;;;;;;;12.40;9.17;;;1.10;99.90;;;;;;4982409;28;20183;-58
2022/03/03 05:13:39;;;;;;;14.23;8.50;;;1.00;99.90;;;;;;4987071;28;20271;-58
2022/03/03 05:16:04;;;;;;;16.23;10.97;;;1.00;99.90;;;;;;4980139;28;20176;-58
2022/03/03 05:18:30;;;;;;;23.70;9.83;;;1.00;99.90;;;;;;4987381;28;20549;-60
2022/03/03 05:20:56;;;;;;;13.57;10.30;;;1.00;99.90;;;;;;4991947;28;20233;-59
2022/03/03 05:23:23;;;;;;;15.90;10.77;;;1.00;99.90;;;;;;4984246;28;20607;-59
2022/03/03 05:25:48;;;;;;;23.83;11.40;;;1.00;99.90;;;;;;4985727;28;20214;-59
2022/03/03 05:28:14;;;;;;;13.77;10.87;;;0.90;99.90;;;;;;4989437;28;20470;-58
2022/03/03 05:30:40;;;;;;;12.60;9.70;;;1.00;99.90;;;;;;4986026;28;20187;-57
2022/03/03 05:33:06;;;;;;;21.23;10.93;;;1.00;99.90;;;;;;4986638;28;20637;-59
2022/03/03 05:35:31;;;;;;;20.03;10.97;;;1.00;99.90;;;;;;4984826;28;20182;-57
2022/03/03 05:37:57;;;;;;;14.97;10.17;;;1.10;99.90;;;;;;4989224;28;20211;-58
2022/03/03 05:40:22;;;;;;;11.60;8.13;;;1.00;99.90;;;;;;4985550;28;20645;-58
2022/03/03 05:42:48;;;;;;;12.93;9.80;;;1.00;99.90;;;;;;4992544;28;20177;-57
2022/03/03 05:45:14;;;;;;;17.20;11.00;;;0.90;99.90;;;;;;4986445;28;20684;-58
2022/03/03 05:47:41;;;;;;;25.30;11.20;;;0.90;99.90;;;;;;4989888;28;20485;-59
2022/03/03 05:50:07;;;;;;;16.97;10.77;;;1.00;99.90;;;;;;4991081;28;20496;-57
2022/03/03 05:52:33;;;;;;;22.50;13.00;;;1.10;99.90;;;;;;4975648;28;20438;-59
2022/03/03 05:54:59;;;;;;;22.60;11.70;;;1.20;99.90;;;;;;4986186;28;20442;-59
2022/03/03 05:57:32;;;;;;;14.53;10.00;;;1.20;99.90;;;;;;4990812;28;20199;-62
2022/03/03 06:00:02;;;;;;;15.67;11.60;;;1.10;99.90;;;;;;4986510;28;20904;-57
2022/03/03 06:02:27;;;;;;;15.77;11.50;;;1.00;99.90;;;;;;4986582;28;20547;-57
2022/03/03 06:04:53;;;;;;;18.70;10.50;;;1.00;99.90;;;;;;4987470;28;20418;-59
2022/03/03 06:07:25;;;;;;;16.30;10.93;;;1.00;99.90;;;;;;4987342;28;20203;-59
2022/03/03 06:09:56;;;;;;;16.17;11.70;;;1.00;99.90;;;;;;4981128;28;20180;-60
2022/03/03 06:12:35;;;;;;;22.23;11.67;;;1.00;99.90;;;;;;4982278;28;20539;-59
2022/03/03 06:15:04;;;;;;;22.20;11.83;;;1.00;99.90;;;;;;4985406;28;20410;-61
2022/03/03 06:17:31;;;;;;;18.27;12.80;;;1.00;99.90;;;;;;4983005;28;20473;-62
2022/03/03 06:20:00;;;;;;;17.43;12.20;;;1.00;99.90;;;;;;4982151;28;20503;-63
2022/03/03 06:22:26;;;;;;;15.97;11.70;;;1.10;99.90;;;;;;4982348;28;20422;-62
2022/03/03 06:24:52;;;;;;;17.37;11.10;;;1.00;99.90;;;;;;4983918;28;20434;-64
2022/03/03 06:27:18;;;;;;;26.40;11.83;;;1.00;99.90;;;;;;4984106;28;20438;-64
2022/03/03 06:29:43;;;;;;;21.13;11.13;;;0.90;99.90;;;;;;4981933;28;20833;-62
2022/03/03 06:32:09;;;;;;;20.30;12.50;;;0.90;99.90;;;;;;4981834;28;20176;-61
2022/03/03 06:34:36;;;;;;;20.23;11.70;;;0.90;99.90;;;;;;4983453;28;20180;-63
2022/03/03 06:37:02;;;;;;;18.83;12.60;;;0.90;99.90;;;;;;4985134;28;20500;-62
2022/03/03 06:39:28;;;;;;;18.47;11.80;;;1.00;99.90;;;;;;4982188;28;20459;-60
2022/03/03 06:41:54;;;;;;;18.53;11.30;;;1.00;99.90;;;;;;4983665;28;20799;-63
2022/03/03 06:44:20;;;;;;;17.93;12.07;;;1.00;99.90;;;;;;4984803;28;20180;-61
2022/03/03 06:46:46;;;;;;;22.37;10.87;;;1.20;99.90;;;;;;4981647;28;20188;-62
2022/03/03 06:49:12;;;;;;;11.70;9.53;;;1.30;99.90;;;;;;4981496;28;20489;-60
2022/03/03 06:51:48;;;;;;;21.77;10.63;;;1.60;99.90;;;;;;4983283;28;20251;-61
2022/03/03 06:54:19;;;;;;;16.27;10.10;;;1.60;99.90;;;;;;4984750;28;20221;-62
2022/03/03 06:56:57;;;;;;;13.67;10.33;;;1.80;99.90;;;;;;4984733;28;20450;-61
2022/03/03 06:59:27;;;;;;;18.03;10.17;;;2.00;99.90;;;;;;4984809;28;20462;-61
2022/03/03 07:01:55;;;;;;;13.73;9.73;;;3.00;99.90;;;;;;4985367;28;20429;-62
2022/03/03 07:04:21;;;;;;;17.20;9.90;;;4.60;99.90;;;;;;4984628;28;20444;-62
2022/03/03 07:06:48;;;;;;;13.10;9.33;;;6.20;99.90;;;;;;4981492;28;20412;-61
2022/03/03 07:09:15;;;;;;;11.87;9.37;;;7.60;99.90;;;;;;4981130;28;20415;-59
2022/03/03 07:11:42;;;;;;;17.80;10.90;;;8.40;99.90;;;;;;4983445;28;20427;-60
2022/03/03 07:14:08;;;;;;;10.53;9.23;;;8.80;99.90;;;;;;4984465;28;20479;-60
2022/03/03 07:16:41;;;;;;;16.40;9.60;;;9.10;99.90;;;;;;4965250;28;20521;-60
2022/03/03 07:19:26;;;;;;;13.13;9.40;;;9.70;99.90;;;;;;4980898;28;21047;-60
2022/03/03 07:22:32;;;;;;;19.40;9.83;;;10.30;99.90;;;;;;4984248;28;20417;-59
2022/03/03 07:25:08;;;;;;;15.03;9.80;;;9.90;99.90;;;;;;4984375;28;20505;-60
2022/03/03 07:27:37;;;;;;;11.37;8.67;;;9.00;99.90;;;;;;4982793;28;20437;-59
2022/03/03 07:30:07;;;;;;;13.40;10.77;;;8.50;99.90;;;;;;4980806;28;20936;-59
2022/03/03 07:32:35;;;;;;;11.13;9.30;;;7.90;99.90;;;;;;4981803;28;20792;-60
2022/03/03 07:35:10;;;;;;;16.37;9.47;;;7.40;99.90;;;;;;4984109;28;20441;-59
2022/03/03 07:37:45;;;;;;;14.93;10.87;;;7.10;99.90;;;;;;4980340;28;20461;-59
2022/03/03 07:40:11;;;;;;;14.20;10.87;;;6.90;99.90;;;;;;4983331;28;20417;-59
2022/03/03 07:42:37;;;;;;;15.00;11.00;;;6.70;99.90;;;;;;4981838;28;20800;-59
2022/03/03 07:45:04;;;;;;;12.43;10.07;;;6.60;99.90;;;;;;4980432;28;20180;-59
2022/03/03 07:47:31;;;;;;;13.57;10.80;;;6.50;99.90;;;;;;4981392;28;20211;-59
2022/03/03 07:49:57;;;;;;;12.30;10.23;;;6.50;99.90;;;;;;4983805;28;20462;-59
2022/03/03 07:52:24;;;;;;;11.80;9.67;;;6.40;99.90;;;;;;4966440;28;20429;-59
2022/03/03 07:54:50;;;;;;;14.63;10.47;;;6.30;99.90;;;;;;4983876;28;20982;-59
2022/03/03 07:57:17;;;;;;;14.20;9.47;;;6.60;99.90;;;;;;4989235;28;20465;-59
2022/03/03 07:59:57;;;;;;;16.30;9.67;;;6.50;99.90;;;;;;4981092;28;20206;-59
2022/03/03 08:02:23;;;;;;;9.73;8.83;;;6.50;99.90;;;;;;4980235;28;20415;-59
2022/03/03 08:04:52;;;;;;;12.33;9.67;;;6.70;99.90;;;;;;4982347;28;20801;-59
2022/03/03 08:07:19;;;;;;;15.27;9.33;;;6.80;99.90;;;;;;4981623;28;20414;-59
2022/03/03 08:09:49;;;;;;;9.57;8.57;;;6.80;99.90;;;;;;4983016;28;20468;-59
2022/03/03 08:12:16;;;;;;;12.27;9.90;;;7.10;99.90;;;;;;4983591;28;20505;-59
2022/03/03 08:14:42;;;;;;;15.97;10.57;;;7.00;99.90;;;;;;4981332;28;20449;-59
2022/03/03 08:17:12;;;;;;;12.73;9.73;;;7.10;99.90;;;;;;4979960;28;20419;-59
2022/03/03 08:19:39;;;;;;;16.23;9.90;;;7.30;99.90;;;;;;4982102;28;20481;-59
2022/03/03 08:22:05;;;;;;;16.10;10.37;;;7.60;99.90;;;;;;4983518;28;20458;-59
2022/03/03 08:24:34;;;;;;;14.47;10.80;;;7.60;99.90;;;;;;4982266;28;20434;-59
2022/03/03 08:27:01;;;;;;;14.83;10.50;;;7.50;99.90;;;;;;4980004;28;20457;-59
2022/03/03 08:29:27;;;;;;;13.10;9.93;;;7.60;99.90;;;;;;4979076;28;20454;-59
2022/03/03 08:31:58;;;;;;;13.23;10.13;;;7.90;99.90;;;;;;4983096;28;20468;-59
2022/03/03 08:34:59;;;;;;;14.63;9.90;;;8.10;99.90;;;;;;4983159;28;20237;-59
2022/03/03 08:37:32;;;;;;;12.60;9.93;;;8.20;99.90;;;;;;4984446;28;20489;-59
2022/03/03 08:40:00;;;;;;;10.20;9.10;;;8.50;99.90;;;;;;4981942;28;20431;-59
2022/03/03 08:42:30;;;;;;;12.13;10.70;;;8.70;99.90;;;;;;4982891;28;20422;-59
2022/03/03 08:45:02;;;;;;;11.20;9.00;;;8.70;99.90;;;;;;4979862;28;20430;-59
2022/03/03 08:47:29;;;;;;;11.00;9.47;;;8.90;99.90;;;;;;4962814;28;21025;-59
2022/03/03 08:49:59;;;;;;;15.93;9.87;;;9.10;99.90;;;;;;4982921;28;20664;-59
2022/03/03 08:52:26;;;;;;;11.80;9.80;;;9.20;99.90;;;;;;4984469;28;20680;-59
2022/03/03 08:54:51;;;;;;;18.27;10.00;;;9.40;99.90;;;;;;4983932;28;20450;-59
2022/03/03 08:57:17;;;;;;;13.77;9.03;;;9.50;99.90;;;;;;4990688;28;20446;-59
2022/03/03 08:59:43;;;;;;;12.10;9.67;;;9.40;99.90;;;;;;4984358;28;20191;-59
2022/03/03 09:02:13;;;;;;;10.77;9.67;;;9.60;99.90;;;;;;4983596;28;20190;-59
2022/03/03 09:04:39;;;;;;;13.13;9.50;;;9.40;99.90;;;;;;4985649;28;20427;-59
2022/03/03 09:07:05;;;;;;;14.87;10.10;;;9.30;99.90;;;;;;4986711;28;20480;-59
2022/03/03 09:09:30;;;;;;;13.23;9.87;;;9.00;99.90;;;;;;4986939;28;20229;-59
2022/03/03 09:11:56;;;;;;;17.60;10.47;;;8.80;99.90;;;;;;4986725;28;20183;-59
2022/03/03 09:14:22;;;;;;;13.40;10.10;;;8.80;99.90;;;;;;4986560;28;20198;-59
2022/03/03 09:16:48;;;;;;;15.20;10.63;;;9.00;99.90;;;;;;4983358;28;20470;-59
2022/03/03 09:19:13;;;;;;;12.60;9.53;;;9.20;99.90;;;;;;4983287;28;20571;-59
2022/03/03 09:21:40;;;;;;;14.50;9.67;;;9.20;99.90;;;;;;4985235;28;20180;-59
2022/03/03 09:24:06;;;;;;;14.00;10.23;;;9.00;99.90;;;;;;4986475;28;20179;-59
2022/03/03 09:26:32;;;;;;;15.63;9.10;;;8.80;99.90;;;;;;4985428;28;20407;-59
2022/03/03 09:28:58;;;;;;;17.37;10.17;;;9.20;99.90;;;;;;4983059;28;20426;-59
2022/03/03 09:31:23;;;;;;;13.70;10.20;;;9.60;99.90;;;;;;4982747;28;20190;-59
2022/03/03 09:33:50;;;;;;;13.30;9.20;;;9.80;99.90;;;;;;4986650;28;20214;-59
2022/03/03 09:36:18;;;;;;;18.33;10.03;;;10.10;99.90;;;;;;4987285;28;20183;-59
2022/03/03 09:38:43;;;;;;;15.40;11.17;;;10.20;99.90;;;;;;4990744;28;20461;-59
2022/03/03 09:41:09;;;;;;;16.30;10.60;;;10.40;99.90;;;;;;4982756;28;20430;-59
2022/03/03 09:43:35;;;;;;;16.17;11.17;;;10.80;99.90;;;;;;4984207;28;20661;-59
2022/03/03 09:46:01;;;;;;;12.57;9.37;;;10.60;99.90;;;;;;4986018;28;20183;-59
2022/03/03 09:48:26;;;;;;;16.20;11.00;;;10.70;99.90;;;;;;4985682;28;20195;-59
2022/03/03 09:50:52;;;;;;;13.43;10.43;;;10.70;99.90;;;;;;4982448;28;20307;-59
2022/03/03 09:53:18;;;;;;;12.80;11.10;;;10.50;99.90;;;;;;4982627;28;20211;-59
2022/03/03 09:55:46;;;;;;;13.80;10.40;;;10.70;99.90;;;;;;4985087;28;20290;-59
2022/03/03 09:58:13;;;;;;;11.10;9.67;;;9.90;99.90;;;;;;4987273;28;21064;-59
2022/03/03 10:00:41;;;;;;;15.30;10.37;;;10.30;99.90;;;;;;4984356;28;20454;-59
2022/03/03 10:03:13;;;;;;;12.20;10.70;;;10.40;99.90;;;;;;4985055;28;20422;-59
2022/03/03 10:05:40;;;;;;;11.50;9.63;;;10.20;99.90;;;;;;4983351;28;20422;-59
2022/03/03 10:08:08;;;;;;;15.43;10.37;;;10.40;99.90;;;;;;4984877;28;20919;-59
2022/03/03 10:10:37;;;;;;;12.20;8.80;;;10.70;99.90;;;;;;4982713;28;20792;-59
2022/03/03 10:13:03;;;;;;;13.50;10.77;;;10.80;99.90;;;;;;4982349;28;20427;-59
2022/03/03 10:15:31;;;;;;;16.60;11.07;;;10.90;99.90;;;;;;4982796;28;20419;-59
2022/03/03 10:18:15;;;;;;;12.13;10.10;;;11.30;99.90;;;;;;4985412;28;20482;-59
2022/03/03 10:20:59;;;;;;;14.17;11.00;;;11.40;99.90;;;;;;4983029;28;20418;-57
2022/03/03 10:23:27;;;;;;;17.57;10.80;;;11.70;99.90;;;;;;4982080;28;20427;-57
2022/03/03 10:25:54;;;;;;;15.33;10.80;;;11.40;99.90;;;;;;4985446;28;20834;-57
2022/03/03 10:28:26;;;;;;;14.47;10.20;;;11.60;99.90;;;;;;4985484;28;20953;-56
2022/03/03 10:31:02;;;;;;;13.10;9.00;;;11.90;99.90;;;;;;4985701;28;20430;-57
2022/03/03 10:33:30;;;;;;;12.97;10.10;;;12.10;99.90;;;;;;4983371;28;20930;-56
2022/03/03 10:36:16;;;;;;;12.77;10.20;;;12.30;1.40;;;;;;4981782;28;20427;-57
2022/03/03 10:38:49;;;;;;;10.60;9.00;;;12.10;99.90;;;;;;4986764;28;20808;-56
2022/03/03 10:41:39;;;;;;;13.30;10.33;;;12.00;99.90;;;;;;4981576;28;20435;-56
2022/03/03 10:44:06;;;;;;;13.87;9.30;;;11.70;99.90;;;;;;4984699;28;20418;-56
2022/03/03 10:46:33;;;;;;;11.90;9.40;;;11.90;99.90;;;;;;4983659;28;20421;-57
2022/03/03 10:49:16;;;;;;;14.80;11.00;;;12.40;1.00;;;;;;4981610;28;20418;-57
2022/03/03 10:51:41;;;;;;;10.37;8.40;;;12.50;1.00;;;;;;4966309;28;20470;-56
2022/03/03 10:54:09;;;;;;;14.30;9.77;;;12.00;99.90;;;;;;4984911;28;20421;-57
2022/03/03 10:56:43;;;;;;;12.33;10.20;;;11.70;99.90;;;;;;4984535;28;20211;-56
2022/03/03 10:59:10;;;;;;;15.87;10.00;;;11.90;99.90;;;;;;4967220;28;20485;-56
2022/03/03 11:01:36;;;;;;;15.00;9.70;;;11.80;99.90;;;;;;4982923;28;20421;-58
2022/03/03 11:04:02;;;;;;;11.20;9.50;;;11.80;99.90;;;;;;4981525;28;20758;-59
2022/03/03 11:06:29;;;;;;;10.73;9.23;;;12.30;1.00;;;;;;4981683;28;20664;-59
2022/03/03 11:08:57;;;;;;;10.60;8.87;;;12.80;1.00;;;;;;4988351;28;20419;-59
2022/03/03 11:11:23;;;;;;;12.43;9.37;;;13.50;1.00;;;;;;4981285;28;20869;-59
2022/03/03 11:13:50;;;;;;;16.20;9.37;;;13.30;1.00;;;;;;4984454;28;20430;-59
2022/03/03 11:16:21;;;;;;;15.00;9.80;;;12.80;1.40;;;;;;4984281;28;20434;-59
2022/03/03 11:18:47;;;;;;;12.63;10.13;;;12.30;1.00;;;;;;4981555;28;20517;-59
2022/03/03 11:21:15;;;;;;;9.83;8.77;;;11.90;99.90;;;;;;4981095;28;20482;-59
2022/03/03 11:23:45;;;;;;;10.87;9.70;;;12.40;1.00;;;;;;4983034;28;20478;-60
2022/03/03 11:26:25;;;;;;;11.53;9.60;;;13.00;1.00;;;;;;4984297;28;20469;-59
2022/03/03 11:29:10;;;;;;;15.90;12.13;;;12.60;1.00;;;;;;4984511;28;20437;-59
2022/03/03 11:31:37;;;;;;;11.57;10.37;;;13.10;1.00;;;;;;4983995;28;20415;-59
2022/03/03 11:34:22;;;;;;;13.67;10.50;;;13.50;1.00;;;;;;4984234;28;20488;-59
2022/03/03 11:36:50;;;;;;;13.00;10.37;;;14.00;1.00;;;;;;4980779;28;20423;-59
2022/03/03 11:39:58;;;;;;;31.33;10.77;;;15.00;1.00;;;;;;4980590;28;20455;-59
2022/03/03 11:42:48;;;;;;;11.20;9.53;;;16.50;1.00;;;;;;4973888;28;21010;-59
2022/03/03 11:45:15;;;;;;;14.60;10.17;;;17.10;1.00;;;;;;4980508;28;20935;-59
2022/03/03 11:47:45;;;;;;;11.10;9.70;;;17.50;1.00;;;;;;4982901;28;20419;-59
2022/03/03 11:50:16;;;;;;;11.13;10.00;;;18.20;1.00;;;;;;4983721;28;20462;-59
2022/03/03 11:52:45;;;;;;;11.40;9.60;;;18.00;1.00;;;;;;4981068;28;20430;-59
2022/03/03 11:55:33;;;;;;;11.70;10.23;;;17.90;1.00;;;;;;4980401;28;20427;-60
2022/03/03 11:58:06;;;;;;;12.90;9.37;;;18.30;1.00;;;;;;4987027;28;20899;-60
2022/03/03 12:00:51;;;;;;;9.87;8.70;;;17.50;1.00;;;;;;4981404;28;20905;-60
2022/03/03 12:03:17;;;;;;;12.23;9.93;;;17.10;1.00;;;;;;4983583;28;20504;-60
2022/03/03 12:05:44;;;;;;;14.30;10.33;;;16.80;1.00;;;;;;4981105;28;20497;-60
2022/03/03 12:08:12;;;;;;;13.97;9.37;;;16.80;1.00;;;;;;4983033;28;20648;-60
2022/03/03 12:10:57;;;;;;;11.07;9.17;;;16.90;1.00;;;;;;4981705;28;20422;-61
2022/03/03 12:13:27;;;;;;;10.23;9.10;;;16.50;1.00;;;;;;4980193;28;20451;-58
2022/03/03 12:16:18;;;;;;;11.00;8.67;;;15.80;1.00;;;;;;4982022;28;20430;-57
2022/03/03 12:18:46;;;;;;;16.90;9.83;;;14.60;1.00;;;;;;4980591;28;20506;-57
2022/03/03 12:21:26;;;;;;;10.93;9.67;;;14.70;1.00;;;;;;4980302;28;20422;-57
2022/03/03 12:24:35;;;;;;;13.67;10.20;;;14.70;1.00;;;;;;4983220;28;20413;-62
2022/03/03 12:27:01;;;;;;;9.43;8.20;;;15.00;1.00;;;;;;4979009;28;20434;-63
2022/03/03 12:29:33;;;;;;;9.00;8.10;;;15.70;1.00;;;;;;4980257;28;20434;-62
2022/03/03 12:32:21;;;;;;;11.30;10.10;;;16.60;1.00;;;;;;4983174;28;20430;-63
2022/03/03 12:34:47;;;;;;;11.70;8.43;;;16.20;1.00;;;;;;4979751;28;20438;-63
2022/03/03 12:37:13;;;;;;;8.67;7.70;;;16.90;1.00;;;;;;4981373;28;20435;-61
2022/03/03 12:39:54;;;;;;;9.97;8.90;;;17.70;1.00;;;;;;4983036;28;20725;-63
2022/03/03 12:42:21;;;;;;;10.03;7.93;;;18.00;1.00;;;;;;4983116;28;20743;-63
2022/03/03 12:44:51;;;;;;;10.03;8.13;;;17.40;1.00;;;;;;4979763;28;20431;-63
2022/03/03 12:47:28;;;;;;;12.10;9.77;;;18.00;1.00;;;;;;4979484;28;20458;-63
2022/03/03 12:49:54;;;;;;;9.17;8.03;;;17.70;1.00;;;;;;4982854;28;20461;-64